Stringtown, Ohio
Current Conditions -  °F | °C
As of 6:53 AM on Friday 28 Nov 2014 (Local Time) from KLUK Reporting Station
Overcast Overcast  
Wind Chill: 22°   Ceiling: 3600
Heat Index: 27°   Visibility: 10mi
Dew Point: 19°   Wind: 5mph
Humidity: 72%   Direction: 220°SW
Pressure: 30.43"   Gusts: NA
Location:  38.8228°N, 84.096°W
Report Text: KLUK 281153Z 22004KT 10SM SCT020 OVC036 M03/M07 A3043 RMK AO2 SLP310 60000 T10281072 11022 21033 53004
Loading
Personal Weather Stations






























Interactive Weather Map New forecast layout! Learn more

10-Day Weather Forecast

Advertisements
Track Severe Weather on mobile